Time;durP1;ratioP1;P1;durP2;ratioP2;P2;SDS_P1;SDS_P2;PMS_P1;PMS_P2;Temp;Humidity;BMP_temperature;BMP_pressure;BME280_temperature;BME280_humidity;BME280_pressure;Samples;Min_cycle;Max_cycle;Signal;HPM_P1;HPM_P2
2022/03/24 00:02:27;;;;;;;22.97;13.40;;;8.50;78.30;;;;;;6002304;24;20922;-87
2022/03/24 00:05:29;;;;;;;22.17;14.93;;;8.40;78.20;;;;;;6085299;23;20445;-88
2022/03/24 00:14:17;;;;;;;23.40;14.43;;;8.30;79.20;;;;;;6071823;23;20376;-86
2022/03/24 00:17:09;;;;;;;22.20;13.60;;;8.20;79.80;;;;;;6074825;23;20485;-87
2022/03/24 00:20:25;;;;;;;21.37;14.30;;;8.20;80.10;;;;;;6075238;23;20377;-86
2022/03/24 00:23:36;;;;;;;19.50;12.47;;;8.10;80.40;;;;;;6085830;23;20443;-88
2022/03/24 00:32:24;;;;;;;25.50;13.80;;;8.10;80.90;;;;;;6092671;23;20438;-87
2022/03/24 00:35:21;;;;;;;22.43;13.83;;;8.10;81.10;;;;;;6078456;23;20404;-87
2022/03/24 00:38:20;;;;;;;17.47;12.33;;;8.10;81.20;;;;;;6063952;23;20393;-87
2022/03/24 00:41:28;;;;;;;24.50;14.07;;;7.90;82.10;;;;;;6075560;23;20469;-87
2022/03/24 00:44:09;;;;;;;24.13;13.47;;;7.90;82.70;;;;;;6072690;23;20425;-87
2022/03/24 00:56:26;;;;;;;21.90;13.77;;;7.70;84.70;;;;;;6073747;23;20807;-86
2022/03/24 00:59:40;;;;;;;23.50;15.47;;;7.70;84.50;;;;;;6082017;23;20413;-86
2022/03/24 01:02:57;;;;;;;20.93;14.93;;;7.60;84.80;;;;;;6079667;23;20513;-87
2022/03/24 01:05:39;;;;;;;24.33;13.90;;;7.50;85.80;;;;;;6075126;23;20896;-86
2022/03/24 01:08:31;;;;;;;25.50;14.60;;;7.50;86.60;;;;;;6074341;23;20556;-86
2022/03/24 01:20:33;;;;;;;20.77;13.57;;;7.40;87.90;;;;;;6089267;23;20398;-87
2022/03/24 01:23:11;;;;;;;19.92;13.45;;;7.30;88.10;;;;;;6081138;23;20454;-87
2022/03/24 01:26:30;;;;;;;19.73;13.10;;;7.30;88.90;;;;;;6074808;23;20228;-87
2022/03/24 01:29:55;;;;;;;21.15;13.93;;;7.30;89.30;;;;;;5931036;24;20489;-87
2022/03/24 01:32:55;;;;;;;;;;;;;;;;;;;;;
2022/03/24 01:35:34;;;;;;;20.10;13.90;;;7.40;89.20;;;;;;6080173;23;20402;-85
2022/03/24 01:38:22;;;;;;;22.48;14.27;;;7.40;89.30;;;;;;6049760;23;20406;-86
2022/03/24 01:41:27;;;;;;;24.33;14.83;;;7.40;89.20;;;;;;6073824;23;20201;-87
2022/03/24 01:44:27;;;;;;;20.53;14.60;;;7.20;89.70;;;;;;6061424;23;20807;-87
2022/03/24 01:47:27;;;;;;;20.75;14.70;;;7.20;90.30;;;;;;6079441;23;20452;-86
2022/03/24 01:53:21;;;;;;;18.70;12.90;;;7.10;90.70;;;;;;6077253;23;20412;-86
2022/03/24 01:58:50;;;;;;;25.47;13.97;;;7.20;90.40;;;;;;5999728;23;20904;-86
2022/03/24 02:01:53;;;;;;;20.23;13.80;;;7.10;90.60;;;;;;6074990;23;20445;-84
2022/03/24 02:04:43;;;;;;;22.52;14.38;;;6.90;91.10;;;;;;6037963;23;20185;-86
2022/03/24 02:07:38;;;;;;;24.17;14.67;;;6.80;91.60;;;;;;6072255;23;20510;-86
2022/03/24 02:10:14;;;;;;;24.83;14.70;;;6.90;91.90;;;;;;6073553;23;20799;-88
2022/03/24 02:12:52;;;;;;;23.83;15.43;;;7.00;91.70;;;;;;6073466;23;20788;-86
2022/03/24 02:15:41;;;;;;;22.70;14.63;;;7.00;91.60;;;;;;6073232;23;20188;-87
2022/03/24 02:18:18;;;;;;;28.30;14.90;;;7.00;91.90;;;;;;6073877;23;20390;-84
2022/03/24 02:21:27;;;;;;;24.13;14.20;;;6.90;91.90;;;;;;6071231;23;20423;-84
2022/03/24 02:24:34;;;;;;;22.13;13.50;;;7.00;92.00;;;;;;6070982;23;20401;-86
2022/03/24 02:27:16;;;;;;;23.03;15.20;;;7.00;92.10;;;;;;6079423;23;20425;-86
2022/03/24 02:32:49;;;;;;;23.37;13.77;;;7.10;92.10;;;;;;6083765;23;20264;-88
2022/03/24 02:38:16;;;;;;;25.87;15.47;;;7.10;92.10;;;;;;6080260;23;20161;-87
2022/03/24 02:44:56;;;;;;;24.83;16.47;;;6.70;93.10;;;;;;6080980;23;20209;-86
2022/03/24 02:47:52;;;;;;;;;;;;;;;;;;;;;
2022/03/24 02:53:22;;;;;;;22.57;14.40;;;6.90;93.30;;;;;;6076888;23;20444;-88
2022/03/24 02:56:01;;;;;;;23.17;14.90;;;6.80;93.30;;;;;;6081327;23;20415;-85
2022/03/24 02:58:56;;;;;;;20.92;14.45;;;6.70;93.70;;;;;;6077429;23;20177;-87
2022/03/24 03:04:43;;;;;;;24.53;15.40;;;6.60;94.20;;;;;;6074571;23;20721;-86
2022/03/24 03:14:06;;;;;;;21.45;15.25;;;6.50;94.70;;;;;;6074331;23;20409;-86
2022/03/24 03:22:54;;;;;;;22.10;14.67;;;6.30;95.80;;;;;;6071287;23;20236;-86
2022/03/24 03:25:41;;;;;;;24.17;14.57;;;6.30;95.70;;;;;;6074195;23;20398;-87
2022/03/24 03:32:02;;;;;;;26.10;15.55;;;6.20;96.10;;;;;;6054907;23;20243;-87
2022/03/24 03:34:49;;;;;;;28.77;16.60;;;6.30;96.20;;;;;;6074340;23;20178;-87
2022/03/24 03:37:40;;;;;;;23.08;15.10;;;6.30;96.30;;;;;;6073124;23;20522;-86
2022/03/24 03:40:33;;;;;;;;;;;;;;;;;;;;;
2022/03/24 03:45:58;;;;;;;20.20;14.27;;;6.30;96.60;;;;;;6071197;23;20177;-88
2022/03/24 03:48:31;;;;;;;27.58;16.80;;;6.30;96.70;;;;;;6074588;23;20198;-87
2022/03/24 03:51:06;;;;;;;25.70;17.00;;;6.20;96.50;;;;;;6073669;23;20297;-87
2022/03/24 03:53:53;;;;;;;21.85;16.05;;;6.20;96.70;;;;;;6073047;23;20264;-87
2022/03/24 03:56:50;;;;;;;24.88;16.65;;;6.10;96.90;;;;;;6078063;23;20284;-87
2022/03/24 03:59:45;;;;;;;21.63;14.65;;;6.10;96.90;;;;;;6074514;23;20181;-87
2022/03/24 04:02:18;;;;;;;23.52;15.10;;;6.20;96.90;;;;;;6083444;23;20185;-85
2022/03/24 04:05:28;;;;;;;22.63;15.10;;;6.20;96.80;;;;;;6081632;23;20178;-86
2022/03/24 04:08:07;;;;;;;32.47;16.48;;;6.20;96.90;;;;;;6084656;23;20241;-86
2022/03/24 04:14:10;;;;;;;23.77;16.15;;;6.10;97.50;;;;;;6077156;23;20618;-86
2022/03/24 04:17:15;;;;;;;24.02;15.63;;;6.10;97.30;;;;;;5999631;23;20184;-85
2022/03/24 04:20:02;;;;;;;;;;;;;;;;;;;;;
2022/03/24 04:25:37;;;;;;;25.17;16.58;;;6.00;97.80;;;;;;6068878;23;20182;-87
2022/03/24 04:31:28;;;;;;;24.02;16.20;;;5.80;98.40;;;;;;6071991;23;20208;-86
2022/03/24 04:34:09;;;;;;;27.25;16.40;;;5.80;98.80;;;;;;6073184;23;20178;-88
2022/03/24 04:37:32;;;;;;;;;;;;;;;;;;;;;
2022/03/24 04:48:36;;;;;;;28.02;17.70;;;5.80;98.70;;;;;;6036985;23;20462;-86
2022/03/24 04:51:28;;;;;;;24.13;15.45;;;5.90;98.70;;;;;;6044925;23;20289;-87
2022/03/24 04:54:06;;;;;;;25.85;16.77;;;5.80;98.90;;;;;;6044829;23;20182;-87
2022/03/24 04:56:37;;;;;;;21.67;15.65;;;5.80;98.90;;;;;;6049701;23;20212;-85
2022/03/24 04:59:07;;;;;;;24.02;15.73;;;5.90;99.10;;;;;;6075753;23;20625;-86
2022/03/24 05:01:36;;;;;;;26.40;16.70;;;5.90;98.80;;;;;;6084898;23;20221;-88
2022/03/24 05:04:04;;;;;;;24.17;15.00;;;5.90;98.70;;;;;;6087157;23;20189;-87
2022/03/24 05:06:32;;;;;;;22.95;15.38;;;5.90;98.70;;;;;;6076389;23;20568;-88
2022/03/24 05:09:05;;;;;;;28.17;16.45;;;5.50;98.60;;;;;;6076580;23;20637;-88
2022/03/24 05:11:34;;;;;;;23.70;15.18;;;5.80;99.10;;;;;;6075902;23;20209;-87
2022/03/24 05:14:01;;;;;;;22.08;15.18;;;5.80;99.00;;;;;;6088937;23;20189;-88
2022/03/24 05:16:29;;;;;;;25.20;14.70;;;5.70;98.70;;;;;;6094534;23;20201;-87
2022/03/24 05:18:56;;;;;;;27.15;15.45;;;5.80;98.70;;;;;;6088624;23;20201;-88
2022/03/24 05:21:24;;;;;;;27.67;16.13;;;5.80;98.70;;;;;;6086013;23;20197;-87
2022/03/24 05:23:51;;;;;;;23.17;15.75;;;5.60;98.40;;;;;;6092403;23;20185;-87
2022/03/24 05:26:20;;;;;;;31.63;17.80;;;5.80;98.40;;;;;;6090757;23;20205;-88
2022/03/24 05:28:52;;;;;;;24.30;15.57;;;5.60;98.10;;;;;;6081937;23;20201;-87
2022/03/24 05:31:20;;;;;;;25.25;16.58;;;5.50;98.10;;;;;;6079082;23;20174;-89
2022/03/24 05:33:51;;;;;;;24.40;15.20;;;5.70;98.40;;;;;;6083527;23;20178;-87
2022/03/24 05:36:20;;;;;;;28.88;15.80;;;5.60;98.60;;;;;;6084930;23;20198;-89
2022/03/24 05:38:51;;;;;;;24.92;16.48;;;5.70;98.80;;;;;;6076823;23;20233;-89
2022/03/24 05:41:18;;;;;;;23.58;15.05;;;5.60;99.10;;;;;;6076684;23;20177;-88
2022/03/24 05:44:03;;;;;;;21.92;14.50;;;5.70;99.20;;;;;;6078604;23;20177;-87
2022/03/24 05:46:32;;;;;;;25.35;15.75;;;5.50;99.20;;;;;;6076943;23;20230;-86
2022/03/24 05:49:03;;;;;;;24.52;15.65;;;5.70;99.40;;;;;;6085798;23;20197;-87
2022/03/24 05:51:30;;;;;;;24.02;15.30;;;5.60;99.40;;;;;;6084744;23;20173;-87
2022/03/24 05:53:57;;;;;;;23.00;14.95;;;5.60;99.50;;;;;;6075738;23;20186;-86
2022/03/24 05:56:24;;;;;;;26.73;15.90;;;5.60;99.70;;;;;;6074191;23;20228;-87
2022/03/24 05:58:56;;;;;;;26.90;15.65;;;5.60;99.80;;;;;;6077882;23;20177;-88
2022/03/24 06:01:25;;;;;;;24.70;15.82;;;5.40;99.80;;;;;;6075936;23;20193;-87
2022/03/24 06:03:52;;;;;;;24.63;16.73;;;5.50;99.80;;;;;;6076187;23;20197;-88
2022/03/24 06:06:22;;;;;;;29.30;15.93;;;5.60;99.90;;;;;;6073944;23;20201;-87
2022/03/24 06:08:52;;;;;;;27.65;16.55;;;5.70;99.90;;;;;;6075834;23;20673;-87
2022/03/24 06:11:20;;;;;;;29.13;15.85;;;5.70;99.60;;;;;;6074789;23;20275;-86
2022/03/24 06:13:48;;;;;;;27.17;13.65;;;5.90;99.40;;;;;;6075229;23;20186;-87
2022/03/24 06:16:17;;;;;;;25.90;15.90;;;5.90;99.10;;;;;;6075740;23;20597;-87
2022/03/24 06:18:44;;;;;;;32.83;17.40;;;5.90;99.20;;;;;;6084197;23;20181;-87
2022/03/24 06:21:26;;;;;;;26.83;17.30;;;5.90;99.30;;;;;;6082257;23;20227;-88
2022/03/24 06:24:19;;;;;;;23.27;15.65;;;5.90;99.70;;;;;;6090036;23;20166;-86
2022/03/24 06:26:52;;;;;;;25.10;15.57;;;5.80;99.70;;;;;;6080643;23;20197;-86
2022/03/24 06:29:39;;;;;;;25.80;15.95;;;5.90;99.90;;;;;;6080209;23;20273;-86
2022/03/24 06:32:13;;;;;;;27.60;15.93;;;6.00;99.60;;;;;;6082661;23;20188;-87
2022/03/24 06:34:51;;;;;;;32.20;17.02;;;6.10;99.80;;;;;;6085096;23;20470;-87
2022/03/24 06:40:23;;;;;;;26.63;16.40;;;6.30;99.30;;;;;;6080696;23;20166;-87
2022/03/24 06:42:53;;;;;;;26.57;17.07;;;6.50;98.80;;;;;;6081692;23;20409;-86
2022/03/24 06:45:27;;;;;;;26.83;16.60;;;6.60;98.40;;;;;;6074988;23;20421;-86
2022/03/24 06:47:59;;;;;;;26.70;16.60;;;6.70;98.00;;;;;;6079180;23;20501;-86
2022/03/24 06:50:27;;;;;;;30.20;17.50;;;6.80;97.50;;;;;;6076059;23;20462;-85
2022/03/24 06:52:59;;;;;;;29.03;17.40;;;6.90;97.40;;;;;;6088420;23;20481;-86
2022/03/24 06:55:31;;;;;;;28.15;17.70;;;6.90;97.20;;;;;;6092054;23;20417;-87
2022/03/24 06:58:01;;;;;;;27.38;17.30;;;6.80;97.00;;;;;;6077333;23;20260;-87
2022/03/24 07:00:29;;;;;;;23.73;16.53;;;7.10;97.10;;;;;;6079821;23;20181;-87
2022/03/24 07:02:59;;;;;;;34.10;17.90;;;7.30;96.80;;;;;;6083059;23;20498;-85
2022/03/24 07:05:31;;;;;;;27.47;17.53;;;7.30;96.50;;;;;;6086994;23;20220;-87
2022/03/24 07:08:05;;;;;;;29.30;17.83;;;7.30;96.30;;;;;;6082231;23;20426;-88
2022/03/24 07:10:42;;;;;;;28.17;17.93;;;7.50;96.50;;;;;;6076988;23;20434;-87
2022/03/24 07:13:10;;;;;;;34.20;19.47;;;7.50;95.90;;;;;;6079690;23;20399;-88
2022/03/24 07:15:49;;;;;;;41.73;20.80;;;7.70;95.80;;;;;;6080070;23;20466;-87
2022/03/24 07:18:20;;;;;;;34.20;19.37;;;7.80;95.90;;;;;;6083195;23;20445;-86
2022/03/24 07:20:53;;;;;;;34.77;19.17;;;7.80;95.60;;;;;;6087259;23;20414;-87
2022/03/24 07:23:25;;;;;;;36.33;19.93;;;7.90;95.30;;;;;;6079748;23;20393;-88
2022/03/24 07:25:55;;;;;;;31.27;17.80;;;8.10;94.90;;;;;;6079764;23;20417;-87
2022/03/24 07:28:25;;;;;;;36.00;18.90;;;8.20;94.70;;;;;;6077489;23;20459;-87
2022/03/24 07:30:58;;;;;;;30.67;20.30;;;8.40;94.50;;;;;;6077336;23;20472;-88
2022/03/24 07:33:32;;;;;;;28.83;18.67;;;8.50;94.10;;;;;;6078666;23;20402;-87
2022/03/24 07:36:11;;;;;;;29.07;18.60;;;8.60;93.80;;;;;;6077045;23;20422;-86
2022/03/24 07:38:38;;;;;;;32.77;18.40;;;8.60;93.50;;;;;;6080229;23;20422;-87
2022/03/24 07:41:06;;;;;;;31.33;19.43;;;8.70;93.10;;;;;;6078041;23;20418;-86
2022/03/24 07:43:33;;;;;;;32.43;19.93;;;8.80;93.10;;;;;;6078007;23;20385;-86
2022/03/24 07:46:00;;;;;;;32.03;20.10;;;8.90;92.90;;;;;;6076309;23;20377;-88
2022/03/24 07:48:34;;;;;;;49.50;19.63;;;9.10;92.60;;;;;;6078455;23;20423;-88
2022/03/24 07:51:10;;;;;;;32.10;20.13;;;9.20;92.30;;;;;;6077694;23;20471;-88
2022/03/24 07:53:53;;;;;;;39.90;21.00;;;9.30;92.00;;;;;;6076777;23;20414;-88
2022/03/24 07:56:24;;;;;;;34.73;20.27;;;9.30;91.60;;;;;;6077273;23;20404;-87
2022/03/24 07:58:51;;;;;;;45.00;23.30;;;9.30;91.50;;;;;;6080505;23;20396;-88
2022/03/24 08:01:34;;;;;;;32.83;20.00;;;9.40;91.30;;;;;;6083297;23;20381;-87
2022/03/24 08:04:15;;;;;;;39.27;20.57;;;9.50;90.90;;;;;;6080664;23;20493;-87
2022/03/24 08:06:45;;;;;;;29.20;21.90;;;9.60;90.70;;;;;;6082295;23;20574;-88
2022/03/24 08:09:19;;;;;;;31.43;19.83;;;9.60;90.80;;;;;;6083669;23;20425;-88
2022/03/24 08:11:55;;;;;;;27.87;20.37;;;9.70;90.70;;;;;;6085031;23;20410;-88
2022/03/24 08:14:35;;;;;;;31.33;21.23;;;9.70;90.70;;;;;;6082049;23;20684;-89
2022/03/24 08:17:29;;;;;;;35.13;21.87;;;9.80;90.40;;;;;;6079853;23;20467;-89
2022/03/24 08:20:05;;;;;;;38.03;21.23;;;9.90;90.10;;;;;;6092296;23;20451;-87
2022/03/24 08:23:05;;;;;;;28.43;20.23;;;10.00;87.90;;;;;;6088896;23;20381;-89
2022/03/24 08:25:38;;;;;;;36.60;23.03;;;10.20;87.80;;;;;;6087721;23;20448;-88
2022/03/24 08:28:55;;;;;;;34.27;23.60;;;10.30;86.90;;;;;;6077608;23;20420;-86
2022/03/24 08:31:33;;;;;;;30.13;21.37;;;10.40;86.50;;;;;;6079672;23;20472;-87
2022/03/24 08:37:16;;;;;;;37.87;19.97;;;10.90;83.10;;;;;;6017468;23;20496;-85
2022/03/24 08:39:58;;;;;;;36.17;21.00;;;11.00;82.80;;;;;;6079647;23;20391;-88
2022/03/24 08:42:40;;;;;;;33.57;21.40;;;11.00;83.20;;;;;;6081312;23;20492;-87
2022/03/24 08:45:28;;;;;;;34.60;22.17;;;11.00;84.00;;;;;;6079002;23;20403;-89
2022/03/24 08:48:25;;;;;;;32.63;22.23;;;11.00;83.10;;;;;;6083624;23;20472;-89
2022/03/24 08:51:09;;;;;;;37.83;22.40;;;11.00;83.00;;;;;;6085453;23;20440;-88
2022/03/24 08:53:57;;;;;;;37.40;22.87;;;11.20;83.10;;;;;;6082676;23;20452;-87
2022/03/24 08:56:25;;;;;;;31.47;20.97;;;11.40;81.80;;;;;;6077510;23;20492;-88
2022/03/24 09:01:54;;;;;;;31.40;20.23;;;11.80;79.80;;;;;;6065353;23;20863;-89
2022/03/24 09:04:44;;;;;;;39.10;24.47;;;11.80;79.10;;;;;;6083617;23;20393;-89
2022/03/24 09:07:38;;;;;;;30.50;22.20;;;12.00;77.90;;;;;;6084235;23;20389;-87
2022/03/24 09:10:10;;;;;;;44.63;23.47;;;12.00;78.60;;;;;;6080312;23;20417;-88
2022/03/24 09:13:20;;;;;;;34.03;22.10;;;12.20;76.90;;;;;;6078640;23;20700;-88
2022/03/24 09:16:27;;;;;;;30.93;19.87;;;12.20;74.70;;;;;;6078214;23;20423;-88
2022/03/24 09:22:08;;;;;;;36.30;22.53;;;12.50;73.60;;;;;;5909963;24;20884;-86
2022/03/24 09:24:38;;;;;;;36.70;22.90;;;12.70;72.20;;;;;;5993674;24;20423;-86
2022/03/24 09:27:18;;;;;;;31.80;22.27;;;12.90;71.70;;;;;;5993310;24;20838;-88
2022/03/24 09:29:52;;;;;;;32.83;22.47;;;12.90;71.10;;;;;;6026765;23;20563;-88
2022/03/24 09:32:24;;;;;;;32.73;22.50;;;13.00;70.00;;;;;;6083097;23;20468;-88
2022/03/24 09:34:57;;;;;;;26.70;19.33;;;13.20;70.40;;;;;;6084717;23;20376;-88
2022/03/24 09:37:32;;;;;;;32.80;22.07;;;13.20;68.70;;;;;;6082264;23;20525;-87
2022/03/24 09:40:13;;;;;;;38.03;22.17;;;13.30;68.00;;;;;;6080726;23;20416;-88
2022/03/24 09:42:54;;;;;;;47.27;22.57;;;13.30;68.40;;;;;;6078073;23;20378;-88
2022/03/24 09:45:44;;;;;;;35.17;22.20;;;13.40;68.20;;;;;;6077847;23;20413;-87
2022/03/24 09:48:22;;;;;;;31.37;21.50;;;13.60;67.00;;;;;;6077058;23;20495;-87
2022/03/24 09:50:56;;;;;;;29.33;20.17;;;13.70;64.90;;;;;;6077200;23;20412;-88
2022/03/24 09:53:33;;;;;;;38.73;20.43;;;13.90;62.00;;;;;;6076751;23;20413;-87
2022/03/24 09:56:08;;;;;;;36.23;23.67;;;14.00;60.60;;;;;;6076994;23;20418;-88
2022/03/24 09:58:37;;;;;;;32.00;20.07;;;14.00;60.40;;;;;;6077123;23;20392;-89
2022/03/24 10:01:14;;;;;;;29.07;20.80;;;14.20;59.40;;;;;;6080444;23;20453;-88
2022/03/24 10:04:08;;;;;;;39.10;21.10;;;14.40;58.60;;;;;;6082015;23;20381;-87
2022/03/24 10:06:44;;;;;;;26.97;19.77;;;14.50;59.00;;;;;;6083266;23;20474;-87
2022/03/24 10:09:24;;;;;;;29.23;19.90;;;14.60;58.00;;;;;;6080488;23;20411;-88
2022/03/24 10:15:12;;;;;;;32.23;20.57;;;14.90;52.30;;;;;;6071021;23;20900;-88
2022/03/24 10:17:50;;;;;;;24.50;18.60;;;14.90;53.00;;;;;;6079841;23;20444;-87
2022/03/24 10:20:32;;;;;;;28.17;19.10;;;14.90;51.40;;;;;;6080859;23;20378;-88
2022/03/24 10:26:42;;;;;;;30.83;19.97;;;15.20;51.20;;;;;;6059285;23;20936;-88
2022/03/24 10:29:36;;;;;;;27.90;20.77;;;15.30;51.40;;;;;;6080083;23;20392;-89
2022/03/24 10:38:08;;;;;;;;;;;;;;;;;;;;;
2022/03/24 10:40:48;;;;;;;24.73;18.90;;;15.60;49.80;;;;;;6078326;23;20415;-87
2022/03/24 10:43:31;;;;;;;26.63;17.70;;;15.60;49.20;;;;;;6077400;23;20417;-88
2022/03/24 10:49:16;;;;;;;23.93;18.37;;;15.70;49.00;;;;;;6061733;23;20425;-87
2022/03/24 10:52:05;;;;;;;25.40;17.90;;;15.90;47.90;;;;;;6085154;23;20420;-87
2022/03/24 10:54:48;;;;;;;25.87;18.97;;;15.90;47.80;;;;;;6093648;23;20397;-87
2022/03/24 11:21:33;;;;;;;31.53;20.87;;;16.50;48.00;;;;;;6101504;23;20770;-85
2022/03/24 11:41:17;;;;;;;24.40;17.37;;;17.10;44.60;;;;;;5894155;24;20416;-86
2022/03/24 12:59:27;;;;;;;19.23;14.97;;;18.30;39.00;;;;;;6019498;23;20433;-87
2022/03/24 14:40:50;;;;;;;21.97;15.57;;;19.30;37.20;;;;;;5824895;24;20808;-86
2022/03/24 17:55:56;;;;;;;17.57;12.27;;;17.10;39.90;;;;;;6027693;23;20424;-87
2022/03/24 18:02:27;;;;;;;20.00;10.50;;;16.90;42.10;;;;;;5994293;23;20408;-87
2022/03/24 18:05:10;;;;;;;18.90;11.70;;;16.90;43.10;;;;;;6114289;23;20415;-89
2022/03/24 18:07:42;;;;;;;21.60;13.63;;;16.80;43.30;;;;;;6111696;23;20403;-88
2022/03/24 18:10:49;;;;;;;19.40;12.87;;;16.70;43.70;;;;;;6112356;23;20485;-87
2022/03/24 18:13:51;;;;;;;17.50;10.90;;;16.60;44.10;;;;;;6085461;23;20492;-89
2022/03/24 18:20:26;;;;;;;15.67;10.90;;;16.30;44.70;;;;;;6108236;23;20375;-88
2022/03/24 18:23:02;;;;;;;16.20;10.87;;;16.20;44.70;;;;;;6108483;23;20423;-88
2022/03/24 18:26:15;;;;;;;21.67;13.03;;;16.10;44.80;;;;;;6107320;23;20379;-88
2022/03/24 18:29:22;;;;;;;12.73;10.10;;;16.10;45.20;;;;;;6106415;23;20519;-88
2022/03/24 18:31:58;;;;;;;19.23;11.73;;;16.00;45.60;;;;;;6107481;23;20452;-88
2022/03/24 18:34:33;;;;;;;16.40;10.90;;;16.00;46.00;;;;;;6109477;23;20686;-89
2022/03/24 18:37:04;;;;;;;22.33;11.97;;;15.90;46.10;;;;;;6108707;23;20499;-89
2022/03/24 18:39:37;;;;;;;18.20;11.30;;;15.90;46.20;;;;;;6110887;23;20428;-88
2022/03/24 18:42:26;;;;;;;15.87;11.20;;;15.90;46.70;;;;;;6120374;23;20408;-88
2022/03/24 18:45:50;;;;;;;14.37;10.70;;;15.70;46.90;;;;;;6113049;23;20392;-87
2022/03/24 18:51:35;;;;;;;15.00;10.90;;;15.30;47.60;;;;;;6108711;23;20476;-88
2022/03/24 18:54:31;;;;;;;15.80;11.23;;;15.10;47.90;;;;;;6107248;23;20425;-88
2022/03/24 19:05:41;;;;;;;13.17;9.37;;;14.60;49.10;;;;;;6108967;23;20388;-89
2022/03/24 19:11:06;;;;;;;18.23;10.43;;;14.50;49.60;;;;;;6110022;23;20455;-90
2022/03/24 19:13:34;;;;;;;21.50;11.63;;;14.50;49.60;;;;;;6113023;23;20939;-90
2022/03/24 19:16:09;;;;;;;15.57;10.87;;;14.40;49.90;;;;;;6118152;23;20427;-87
2022/03/24 19:18:41;;;;;;;15.80;11.07;;;14.30;50.10;;;;;;6111834;23;20400;-87
2022/03/24 19:21:18;;;;;;;15.50;11.73;;;14.20;50.30;;;;;;6113073;23;20378;-87
2022/03/24 19:23:46;;;;;;;15.80;11.23;;;14.00;50.70;;;;;;6110330;23;20368;-88
2022/03/24 19:26:19;;;;;;;12.77;9.17;;;13.80;50.80;;;;;;6108240;23;20425;-88
2022/03/24 19:28:46;;;;;;;13.73;10.50;;;13.80;51.00;;;;;;6108324;23;20443;-86
2022/03/24 19:31:15;;;;;;;17.07;10.73;;;13.70;51.30;;;;;;6106361;23;20431;-88
2022/03/24 19:34:02;;;;;;;17.87;10.17;;;13.60;51.40;;;;;;6111941;23;20406;-88
2022/03/24 19:36:29;;;;;;;19.40;11.80;;;13.60;52.10;;;;;;6119523;23;20380;-87
2022/03/24 19:38:56;;;;;;;14.93;10.13;;;13.60;52.20;;;;;;6118747;23;20409;-88
2022/03/24 19:41:41;;;;;;;15.50;11.80;;;13.60;52.00;;;;;;6111106;23;20486;-88
2022/03/24 19:44:08;;;;;;;25.40;15.20;;;13.70;52.00;;;;;;6117281;23;20379;-89
2022/03/24 19:46:55;;;;;;;14.67;10.73;;;13.40;52.00;;;;;;6122772;23;20436;-84
2022/03/24 19:49:24;;;;;;;19.93;10.57;;;13.30;52.50;;;;;;6119917;23;20443;-88
2022/03/24 19:51:58;;;;;;;12.23;9.10;;;13.20;52.70;;;;;;6124168;23;20922;-87
2022/03/24 19:54:51;;;;;;;17.17;10.43;;;13.10;53.00;;;;;;6120676;23;20405;-87
2022/03/24 19:57:21;;;;;;;13.80;10.10;;;13.10;53.20;;;;;;6115060;23;20495;-89
2022/03/24 19:59:51;;;;;;;12.43;9.30;;;13.10;53.30;;;;;;6113789;23;20395;-87
2022/03/24 20:02:21;;;;;;;16.83;10.20;;;13.20;53.20;;;;;;6108876;23;20391;-86
2022/03/24 20:05:00;;;;;;;13.63;8.90;;;13.00;53.40;;;;;;6116315;23;20387;-86
2022/03/24 20:07:32;;;;;;;16.53;10.63;;;12.90;53.70;;;;;;6121607;23;20402;-85
2022/03/24 20:10:17;;;;;;;15.27;10.20;;;12.90;54.10;;;;;;6115335;23;20396;-87
2022/03/24 20:13:09;;;;;;;15.80;10.17;;;12.80;54.40;;;;;;6114594;23;20418;-86
2022/03/24 20:25:25;;;;;;;15.33;10.47;;;12.80;54.80;;;;;;6110959;23;20472;-87
2022/03/24 20:28:07;;;;;;;16.40;10.90;;;12.80;55.00;;;;;;6114261;23;20916;-87
2022/03/24 20:30:47;;;;;;;13.50;10.30;;;12.70;55.30;;;;;;6109177;23;20847;-87
2022/03/24 20:33:26;;;;;;;17.23;10.90;;;12.50;55.50;;;;;;6111782;23;20443;-87
2022/03/24 20:39:37;;;;;;;17.43;11.57;;;12.30;55.80;;;;;;6108460;23;20839;-87
2022/03/24 20:42:43;;;;;;;21.73;12.43;;;12.30;56.20;;;;;;6109724;23;20435;-87
2022/03/24 20:45:27;;;;;;;16.83;11.03;;;12.30;56.30;;;;;;6110056;23;20419;-87
2022/03/24 20:48:36;;;;;;;21.13;10.20;;;12.30;56.50;;;;;;6111497;23;20445;-86
2022/03/24 20:54:29;;;;;;;15.80;10.40;;;12.10;56.70;;;;;;6101706;23;20409;-88
2022/03/24 21:00:22;;;;;;;14.23;11.07;;;11.90;57.20;;;;;;6116411;23;20409;-85
2022/03/24 21:02:57;;;;;;;19.47;9.90;;;11.80;57.50;;;;;;6107952;23;20415;-86
2022/03/24 21:05:25;;;;;;;17.00;10.73;;;11.90;57.50;;;;;;6106052;23;20420;-87
2022/03/24 21:08:03;;;;;;;15.63;9.87;;;11.80;57.70;;;;;;6106758;23;20441;-86
2022/03/24 21:10:39;;;;;;;15.23;11.10;;;11.70;57.80;;;;;;6104766;23;20405;-86
2022/03/24 21:13:15;;;;;;;17.67;10.77;;;11.70;58.10;;;;;;6109593;23;20448;-88
2022/03/24 21:15:59;;;;;;;14.50;10.40;;;11.60;58.40;;;;;;6111230;23;20413;-87
2022/03/24 21:27:34;;;;;;;14.80;10.80;;;11.20;59.40;;;;;;6101775;23;20932;-86
2022/03/24 21:33:20;;;;;;;19.60;11.70;;;11.20;59.70;;;;;;6097698;23;20930;-88
2022/03/24 21:39:39;;;;;;;17.27;11.33;;;11.20;59.80;;;;;;6108760;23;20416;-88
2022/03/24 21:42:37;;;;;;;17.63;10.93;;;11.10;60.10;;;;;;6109021;23;20419;-88
2022/03/24 21:51:08;;;;;;;17.77;11.27;;;10.90;60.60;;;;;;6136082;23;20910;-89
2022/03/24 21:56:45;;;;;;;16.00;11.80;;;10.90;61.00;;;;;;6114842;23;20400;-87
2022/03/24 21:59:38;;;;;;;15.30;12.00;;;10.90;61.00;;;;;;6104652;23;20480;-87
2022/03/24 22:02:28;;;;;;;18.13;11.73;;;10.70;61.50;;;;;;6103900;23;20425;-88
2022/03/24 22:05:39;;;;;;;17.33;11.17;;;10.60;61.90;;;;;;6102848;23;20392;-88
2022/03/24 22:08:21;;;;;;;19.40;10.80;;;10.50;62.30;;;;;;6093228;23;20415;-87
2022/03/24 22:11:19;;;;;;;16.53;11.10;;;10.60;62.60;;;;;;6118724;23;20405;-88
2022/03/24 22:14:08;;;;;;;17.37;12.50;;;10.60;62.70;;;;;;6119335;23;20464;-89
2022/03/24 22:17:08;;;;;;;20.33;12.80;;;10.40;62.90;;;;;;6108497;23;20494;-86
2022/03/24 22:23:00;;;;;;;20.83;12.40;;;10.40;63.60;;;;;;6057613;23;20881;-88
2022/03/24 22:26:20;;;;;;;17.77;11.97;;;10.40;63.70;;;;;;6117885;23;20411;-87
2022/03/24 22:29:33;;;;;;;16.47;11.83;;;10.30;63.70;;;;;;6118774;23;20445;-88
2022/03/24 22:32:40;;;;;;;16.70;11.27;;;10.30;63.80;;;;;;6099994;23;20472;-88
2022/03/24 22:42:00;;;;;;;19.20;13.10;;;10.20;64.50;;;;;;6111240;23;20452;-89
2022/03/24 22:45:09;;;;;;;19.63;12.33;;;10.10;65.10;;;;;;6059157;23;20427;-87
2022/03/24 22:48:22;;;;;;;20.03;13.07;;;10.10;65.20;;;;;;6019782;23;20443;-87
2022/03/24 22:54:52;;;;;;;19.33;12.33;;;10.10;65.80;;;;;;5933223;23;20454;-89
